Terminal Aerodrome Forecast
Issued by NWS

Home | Current Version | Previous Version | Text Only | Print | Product List | Glossary On
Versions: 1 2 3 4 5 6 7 8 9 10 11 12 13 14 15 16 17 18 19 20
296
FTUS44 KLZK 271403 AAA
TAFHRO
TAF AMD
KHRO 271403Z 2714/2812 13005KT 4SM BR VCSH SCT015 SCT030
      TEMPO 2714/2718 2SM BR BKN002
     FM271800 17005KT P6SM VCTS BKN015CB BKN025
     FM280100 15004KT P6SM SCT250
      TEMPO 2809/2812 5SM BR SCT015=

USA.gov is the U.S. government's official web portal to all federal, state and local government web resources and services.